Time;durP1;ratioP1;P1;durP2;ratioP2;P2;SDS_P1;SDS_P2;PMS_P1;PMS_P2;Temp;Humidity;BMP_temperature;BMP_pressure;BME280_temperature;BME280_humidity;BME280_pressure;Samples;Min_cycle;Max_cycle;Signal;HPM_P1;HPM_P2
2023/09/07 00:01:56;;;;;;;7.55;5.03;;;17.10;99.90;;;;;;5097314;28;20187;-85
2023/09/07 00:04:22;;;;;;;11.95;5.75;;;17.00;99.90;;;;;;5096830;28;20177;-85
2023/09/07 00:06:49;;;;;;;7.03;5.30;;;17.10;99.90;;;;;;5098081;28;20173;-85
2023/09/07 00:09:18;;;;;;;7.90;5.55;;;17.10;99.90;;;;;;5096907;28;20193;-84
2023/09/07 00:11:45;;;;;;;7.38;5.35;;;17.10;99.90;;;;;;5096574;28;20201;-85
2023/09/07 00:14:10;;;;;;;7.20;5.32;;;17.10;99.90;;;;;;5096162;28;20169;-85
2023/09/07 00:16:38;;;;;;;7.68;5.15;;;17.10;99.90;;;;;;5095777;28;20219;-85
2023/09/07 00:19:04;;;;;;;9.43;5.45;;;17.10;99.90;;;;;;5097756;28;20200;-90
2023/09/07 00:21:35;;;;;;;7.78;5.90;;;17.00;99.90;;;;;;5097510;28;20703;-89
2023/09/07 00:24:05;;;;;;;7.93;5.53;;;17.00;99.90;;;;;;5098534;28;20576;-89
2023/09/07 00:26:31;;;;;;;8.18;6.05;;;16.90;99.90;;;;;;5097892;28;20181;-90
2023/09/07 00:28:56;;;;;;;6.63;5.13;;;16.90;99.90;;;;;;5097193;28;20208;-88
2023/09/07 00:31:24;;;;;;;9.55;5.82;;;16.90;99.90;;;;;;5097858;28;20212;-89
2023/09/07 00:33:50;;;;;;;7.05;5.57;;;16.80;99.90;;;;;;5097276;28;20181;-89
2023/09/07 00:36:16;;;;;;;8.40;6.03;;;16.80;99.90;;;;;;5097799;28;20264;-90
2023/09/07 00:38:42;;;;;;;8.27;5.75;;;16.80;99.90;;;;;;5098384;28;20227;-90
2023/09/07 00:41:07;;;;;;;9.60;6.00;;;16.80;99.90;;;;;;5098707;28;20177;-90
2023/09/07 00:43:33;;;;;;;7.95;5.65;;;16.80;99.90;;;;;;5097443;28;20221;-90
2023/09/07 00:45:59;;;;;;;8.85;6.13;;;16.70;99.90;;;;;;5097525;28;20181;-89
2023/09/07 00:48:25;;;;;;;6.50;5.47;;;16.70;99.90;;;;;;5097059;28;20197;-89
2023/09/07 00:50:51;;;;;;;7.47;5.68;;;16.70;99.90;;;;;;5096504;28;20209;-89
2023/09/07 00:53:17;;;;;;;14.48;7.18;;;16.80;99.90;;;;;;5097070;28;20200;-89
2023/09/07 00:55:44;;;;;;;10.10;6.32;;;16.70;99.90;;;;;;5097480;28;20637;-89
2023/09/07 00:58:12;;;;;;;8.27;5.60;;;16.70;99.90;;;;;;5097199;28;20230;-88
2023/09/07 01:00:39;;;;;;;6.38;4.85;;;16.50;99.90;;;;;;5098282;28;20176;-89
2023/09/07 01:03:05;;;;;;;8.07;4.40;;;16.30;99.90;;;;;;5097790;28;20227;-90
2023/09/07 01:05:40;;;;;;;8.60;4.63;;;16.10;99.90;;;;;;5097447;28;20181;-90
2023/09/07 01:08:16;;;;;;;9.15;4.80;;;16.00;99.90;;;;;;5096485;28;20207;-89
2023/09/07 01:10:42;;;;;;;6.40;4.47;;;15.90;99.90;;;;;;5096473;28;20189;-89
2023/09/07 01:13:08;;;;;;;8.20;4.45;;;15.80;99.90;;;;;;5096898;28;20195;-90
2023/09/07 01:15:34;;;;;;;6.70;4.85;;;15.70;99.90;;;;;;5097068;28;20177;-90
2023/09/07 01:18:00;;;;;;;9.63;4.78;;;15.70;99.90;;;;;;5098331;28;20221;-90
2023/09/07 01:20:26;;;;;;;7.78;4.20;;;15.60;99.90;;;;;;5097359;28;20168;-90
2023/09/07 01:22:53;;;;;;;6.88;4.50;;;15.70;99.90;;;;;;5096926;28;20173;-89
2023/09/07 01:25:19;;;;;;;7.70;4.72;;;15.70;99.90;;;;;;5096303;28;20199;-88
2023/09/07 01:27:45;;;;;;;7.35;5.13;;;15.70;99.90;;;;;;5096889;28;20197;-88
2023/09/07 01:30:11;;;;;;;8.30;5.85;;;15.80;99.90;;;;;;5095943;28;20189;-88
2023/09/07 01:32:42;;;;;;;10.43;5.30;;;15.80;99.90;;;;;;5095862;28;20704;-89
2023/09/07 01:35:11;;;;;;;6.05;4.80;;;15.80;99.90;;;;;;5098658;28;20206;-90
2023/09/07 01:37:36;;;;;;;8.98;5.63;;;15.70;99.90;;;;;;5097182;28;20208;-90
2023/09/07 01:40:07;;;;;;;6.00;4.88;;;15.70;99.90;;;;;;5097964;28;20610;-91
2023/09/07 01:42:33;;;;;;;8.27;5.45;;;15.70;99.90;;;;;;5098685;28;20169;-90
2023/09/07 01:44:58;;;;;;;7.95;5.88;;;15.60;99.90;;;;;;5099211;28;20183;-91
2023/09/07 01:47:24;;;;;;;7.50;5.00;;;15.60;99.90;;;;;;5098147;28;20206;-90
2023/09/07 01:49:50;;;;;;;6.18;4.45;;;15.50;99.90;;;;;;5098462;28;20634;-91
2023/09/07 01:52:16;;;;;;;5.88;4.63;;;15.40;99.90;;;;;;5097754;28;20196;-91
2023/09/07 01:54:41;;;;;;;7.22;5.22;;;15.30;99.90;;;;;;5097465;28;20168;-91
2023/09/07 01:57:07;;;;;;;8.27;4.70;;;15.40;99.90;;;;;;5097352;28;20177;-90
2023/09/07 01:59:33;;;;;;;5.38;4.43;;;15.30;99.90;;;;;;5097405;28;20328;-90
2023/09/07 02:01:59;;;;;;;6.35;4.55;;;15.30;99.90;;;;;;5098307;28;20599;-90
2023/09/07 02:04:25;;;;;;;10.15;5.18;;;15.30;99.90;;;;;;5097635;28;20184;-90
2023/09/07 02:06:50;;;;;;;8.30;4.55;;;15.30;99.90;;;;;;5097803;28;20621;-90
2023/09/07 02:09:16;;;;;;;7.05;4.50;;;15.20;99.90;;;;;;5096989;28;20660;-89
2023/09/07 02:11:42;;;;;;;11.50;5.60;;;15.20;99.90;;;;;;5097203;28;20684;-89
2023/09/07 02:14:09;;;;;;;11.35;5.22;;;15.20;99.90;;;;;;5096884;28;20633;-89
2023/09/07 02:16:35;;;;;;;7.45;6.03;;;15.20;99.90;;;;;;5098417;28;20179;-89
2023/09/07 02:19:03;;;;;;;9.50;5.57;;;15.20;99.90;;;;;;5101831;28;20268;-91
2023/09/07 02:21:29;;;;;;;7.20;5.70;;;15.30;99.90;;;;;;5102590;28;20711;-91
2023/09/07 02:23:55;;;;;;;7.53;5.75;;;15.30;99.90;;;;;;5101194;28;20204;-89
2023/09/07 02:26:21;;;;;;;9.73;5.70;;;15.30;99.90;;;;;;5100603;28;20641;-89
2023/09/07 02:28:46;;;;;;;8.20;5.85;;;15.30;99.90;;;;;;5100036;28;20303;-89
2023/09/07 02:31:12;;;;;;;8.73;5.93;;;15.30;99.90;;;;;;5099914;28;20216;-89
2023/09/07 02:33:38;;;;;;;7.05;5.32;;;15.20;99.90;;;;;;5099730;28;20199;-89
2023/09/07 02:36:04;;;;;;;10.23;5.55;;;15.10;99.90;;;;;;5099385;28;20173;-89
2023/09/07 02:38:30;;;;;;;7.07;5.90;;;15.20;99.90;;;;;;5099848;28;20204;-90
2023/09/07 02:40:57;;;;;;;7.85;5.80;;;15.30;99.90;;;;;;5100137;28;20177;-90
2023/09/07 02:43:22;;;;;;;10.57;6.05;;;15.20;99.90;;;;;;5101918;28;20173;-91
2023/09/07 02:51:00;;;;;;;7.03;5.78;;;15.10;99.90;;;;;;5070448;28;20236;-87
2023/09/07 02:53:26;;;;;;;8.63;6.28;;;15.10;99.90;;;;;;5066851;28;20253;-87
2023/09/07 02:55:52;;;;;;;7.82;5.50;;;15.10;99.90;;;;;;5062570;28;20182;-88
2023/09/07 02:58:18;;;;;;;10.25;5.88;;;15.00;99.90;;;;;;5059925;28;20170;-87
2023/09/07 03:00:44;;;;;;;10.43;5.90;;;15.00;99.90;;;;;;5060458;28;20194;-87
2023/09/07 03:03:13;;;;;;;7.45;5.20;;;15.00;99.90;;;;;;5059073;28;20210;-87
2023/09/07 03:05:43;;;;;;;8.98;6.15;;;14.90;99.90;;;;;;5058467;28;20178;-88
2023/09/07 03:08:10;;;;;;;8.02;5.72;;;14.90;99.90;;;;;;5059856;28;20166;-87
2023/09/07 03:10:37;;;;;;;11.45;5.90;;;14.90;99.90;;;;;;5058472;28;20198;-87
2023/09/07 03:13:03;;;;;;;7.55;5.78;;;14.90;99.90;;;;;;5059156;28;20312;-89
2023/09/07 03:15:29;;;;;;;9.15;5.70;;;14.90;99.90;;;;;;5058627;28;20617;-88
2023/09/07 03:17:55;;;;;;;9.75;5.78;;;14.80;99.90;;;;;;5058989;28;20174;-87
2023/09/07 03:20:21;;;;;;;8.20;6.28;;;14.90;99.90;;;;;;5058357;28;20201;-88
2023/09/07 03:22:46;;;;;;;12.40;5.93;;;14.90;99.90;;;;;;5055712;28;20281;-88
2023/09/07 03:25:14;;;;;;;7.85;5.82;;;14.80;99.90;;;;;;5054872;28;20635;-88
2023/09/07 03:27:40;;;;;;;13.02;6.45;;;14.70;99.90;;;;;;5054285;28;20218;-88
2023/09/07 03:30:07;;;;;;;6.60;5.72;;;14.70;99.90;;;;;;5055233;28;20534;-88
2023/09/07 03:32:33;;;;;;;9.80;6.45;;;14.70;99.90;;;;;;5054730;28;20218;-88
2023/09/07 03:35:09;;;;;;;11.32;6.90;;;14.70;99.90;;;;;;5038864;28;20179;-87
2023/09/07 03:37:35;;;;;;;11.10;6.13;;;14.70;99.90;;;;;;5054047;28;20207;-86
2023/09/07 03:40:01;;;;;;;9.38;6.45;;;14.90;99.90;;;;;;5056728;28;20679;-87
2023/09/07 03:42:26;;;;;;;9.77;6.32;;;14.90;99.90;;;;;;5057353;28;20193;-87
2023/09/07 03:44:52;;;;;;;10.80;7.03;;;14.90;99.90;;;;;;5057165;28;20179;-86
2023/09/07 03:47:18;;;;;;;11.05;7.70;;;14.90;99.90;;;;;;5057321;28;20206;-87
2023/09/07 03:49:44;;;;;;;12.68;7.03;;;14.80;99.90;;;;;;5057348;28;20194;-87
2023/09/07 03:52:11;;;;;;;9.07;7.13;;;14.80;99.90;;;;;;5066224;28;20263;-86
2023/09/07 03:54:37;;;;;;;11.55;7.25;;;14.70;99.90;;;;;;5077296;28;20177;-87
2023/09/07 03:57:03;;;;;;;10.48;7.07;;;14.80;99.90;;;;;;5076611;28;20178;-87
2023/09/07 03:59:29;;;;;;;14.07;6.32;;;14.70;99.90;;;;;;5076969;28;20243;-87
2023/09/07 04:01:55;;;;;;;9.77;6.28;;;14.70;99.90;;;;;;5076766;28;20189;-87
2023/09/07 04:04:21;;;;;;;10.63;6.40;;;14.70;99.90;;;;;;5077008;28;20178;-87
2023/09/07 04:06:50;;;;;;;10.68;6.50;;;14.70;99.90;;;;;;5077190;28;20181;-87
2023/09/07 04:09:16;;;;;;;9.43;6.50;;;14.70;99.90;;;;;;5078301;28;20198;-86
2023/09/07 04:11:41;;;;;;;8.48;6.43;;;14.70;99.90;;;;;;5076833;28;20202;-85
2023/09/07 04:14:07;;;;;;;12.05;7.03;;;14.70;99.90;;;;;;5079413;28;20185;-86
2023/09/07 04:16:33;;;;;;;8.07;6.68;;;14.60;99.90;;;;;;5079679;28;20251;-86
2023/09/07 04:18:59;;;;;;;11.73;6.90;;;14.60;99.90;;;;;;5076680;28;20205;-86
2023/09/07 04:21:24;;;;;;;13.63;7.22;;;14.60;99.90;;;;;;5076603;28;20185;-86
2023/09/07 04:23:50;;;;;;;11.23;7.35;;;14.60;99.90;;;;;;5076756;28;20185;-85
2023/09/07 04:26:16;;;;;;;9.98;7.28;;;14.60;99.90;;;;;;5076273;28;20217;-85
2023/09/07 04:28:41;;;;;;;12.45;7.43;;;14.60;99.90;;;;;;5076259;28;20241;-85
2023/09/07 04:31:11;;;;;;;10.75;7.47;;;14.60;99.90;;;;;;5072493;28;20275;-91
2023/09/07 04:33:39;;;;;;;10.32;6.90;;;14.70;99.90;;;;;;5074429;28;20562;-89
2023/09/07 04:36:13;;;;;;;9.55;7.38;;;14.60;99.90;;;;;;5075453;28;20171;-91
2023/09/07 04:38:39;;;;;;;9.30;7.53;;;14.60;99.90;;;;;;5057804;28;20190;-90
2023/09/07 04:41:09;;;;;;;12.13;7.50;;;14.60;99.90;;;;;;5060114;28;20241;-89
2023/09/07 04:43:36;;;;;;;12.68;8.18;;;14.50;99.90;;;;;;5073863;28;20209;-90
2023/09/07 04:46:03;;;;;;;10.00;7.40;;;14.50;99.90;;;;;;5076518;28;20178;-90
2023/09/07 04:48:29;;;;;;;12.00;7.63;;;14.40;99.90;;;;;;5067300;28;20251;-90
2023/09/07 04:51:08;;;;;;;11.75;6.90;;;14.40;99.90;;;;;;5074724;28;20667;-90
2023/09/07 04:53:36;;;;;;;12.20;7.00;;;14.40;99.90;;;;;;5074436;28;20189;-89
2023/09/07 04:56:03;;;;;;;12.52;7.43;;;14.40;99.90;;;;;;5074153;28;20202;-89
2023/09/07 04:58:29;;;;;;;10.20;7.00;;;14.40;99.90;;;;;;5059007;28;20193;-90
2023/09/07 05:01:02;;;;;;;9.57;7.15;;;14.30;99.90;;;;;;5075327;28;20178;-90
2023/09/07 05:03:28;;;;;;;11.15;6.95;;;14.20;99.90;;;;;;5073911;28;20208;-90
2023/09/07 05:05:53;;;;;;;12.55;8.05;;;14.10;99.90;;;;;;5074441;28;20186;-89
2023/09/07 05:08:20;;;;;;;11.52;6.25;;;14.10;99.90;;;;;;5074296;28;20190;-89
2023/09/07 05:10:45;;;;;;;8.63;6.13;;;14.10;99.90;;;;;;5075806;28;20281;-88
2023/09/07 05:13:16;;;;;;;9.00;6.38;;;14.10;99.90;;;;;;5075485;28;20216;-88
2023/09/07 05:16:01;;;;;;;8.15;6.20;;;14.10;99.90;;;;;;5076643;28;20176;-89
2023/09/07 05:18:43;;;;;;;7.50;5.90;;;14.00;99.90;;;;;;5073078;28;20169;-89
2023/09/07 05:21:14;;;;;;;10.40;5.93;;;14.00;99.90;;;;;;5071505;28;20193;-87
2023/09/07 05:23:42;;;;;;;9.30;6.38;;;14.00;99.90;;;;;;5071280;28;20200;-86
2023/09/07 05:26:08;;;;;;;8.48;6.43;;;13.90;99.90;;;;;;5078398;28;20166;-89
2023/09/07 05:28:37;;;;;;;10.50;5.60;;;14.00;99.90;;;;;;5072414;28;20312;-87
2023/09/07 05:31:05;;;;;;;9.20;6.38;;;13.90;99.90;;;;;;5070063;28;20201;-86
2023/09/07 05:33:31;;;;;;;7.35;5.68;;;14.00;99.90;;;;;;5075372;28;20639;-88
2023/09/07 05:35:57;;;;;;;9.05;6.15;;;13.90;99.90;;;;;;5068067;28;20166;-86
2023/09/07 05:38:23;;;;;;;9.07;6.13;;;14.00;99.90;;;;;;5071616;28;20257;-89
2023/09/07 05:40:53;;;;;;;7.97;6.13;;;14.00;99.90;;;;;;5083356;28;20206;-89
2023/09/07 05:43:25;;;;;;;10.57;6.88;;;14.10;99.90;;;;;;5083241;28;20208;-88
2023/09/07 05:45:52;;;;;;;7.47;5.90;;;14.20;99.90;;;;;;5067929;28;20206;-89
2023/09/07 05:48:18;;;;;;;9.95;6.10;;;14.30;99.90;;;;;;5068451;28;20190;-87
2023/09/07 05:50:44;;;;;;;8.48;6.60;;;14.40;99.90;;;;;;5064265;28;20233;-89
2023/09/07 05:53:10;;;;;;;9.98;6.40;;;14.40;99.90;;;;;;5063461;28;20242;-87
2023/09/07 05:55:36;;;;;;;7.95;6.25;;;14.40;99.90;;;;;;5075039;28;20643;-89
2023/09/07 05:58:07;;;;;;;7.90;6.25;;;14.50;99.90;;;;;;5068599;28;20186;-89
2023/09/07 06:00:36;;;;;;;8.15;5.70;;;14.60;99.90;;;;;;5056897;28;20194;-86
2023/09/07 06:03:10;;;;;;;7.80;5.60;;;14.70;99.90;;;;;;5069737;28;20231;-90
2023/09/07 06:05:38;;;;;;;11.85;6.82;;;14.80;99.90;;;;;;5075214;28;20166;-89
2023/09/07 06:08:06;;;;;;;11.00;6.45;;;14.90;99.90;;;;;;5068369;28;20659;-86
2023/09/07 06:10:32;;;;;;;14.45;6.95;;;14.90;99.90;;;;;;5058968;28;20715;-91
2023/09/07 06:12:58;;;;;;;8.43;6.50;;;15.10;99.90;;;;;;5062088;28;20186;-87
2023/09/07 06:15:24;;;;;;;9.70;6.85;;;15.20;99.90;;;;;;5071275;28;20178;-91
2023/09/07 06:17:50;;;;;;;11.48;5.72;;;15.30;99.90;;;;;;5076684;28;20200;-84
2023/09/07 06:20:17;;;;;;;10.27;7.00;;;15.40;99.90;;;;;;5083365;28;20264;-89
2023/09/07 06:22:45;;;;;;;9.38;6.82;;;15.50;99.90;;;;;;5087327;28;20259;-87
2023/09/07 06:25:11;;;;;;;11.07;7.40;;;15.60;99.90;;;;;;5080748;28;20166;-91
2023/09/07 06:27:38;;;;;;;10.40;7.30;;;15.70;99.90;;;;;;5075109;28;20253;-86
2023/09/07 06:30:06;;;;;;;10.40;6.53;;;15.80;99.90;;;;;;5076230;28;20228;-87
2023/09/07 06:32:35;;;;;;;8.90;6.38;;;15.80;99.90;;;;;;5060928;28;20194;-87
2023/09/07 06:35:02;;;;;;;9.48;6.55;;;15.90;99.90;;;;;;5077290;28;20174;-87
2023/09/07 06:37:29;;;;;;;13.50;7.88;;;16.00;99.90;;;;;;5071952;28;20158;-88
2023/09/07 06:39:56;;;;;;;9.15;6.88;;;16.10;99.90;;;;;;5075962;28;20186;-88
2023/09/07 06:42:24;;;;;;;10.70;7.40;;;16.20;99.90;;;;;;5073850;28;20179;-89
2023/09/07 06:44:51;;;;;;;12.38;6.60;;;16.30;99.90;;;;;;5071656;28;20271;-90
2023/09/07 07:00:45;;;;;;;12.40;7.72;;;16.90;99.90;;;;;;5113069;23;20239;-80
2023/09/07 07:03:11;;;;;;;10.00;6.50;;;17.00;99.90;;;;;;5117282;28;20182;-79
2023/09/07 07:05:37;;;;;;;9.38;6.60;;;17.10;99.90;;;;;;5118779;28;20181;-78
2023/09/07 07:08:03;;;;;;;16.35;7.25;;;17.20;99.90;;;;;;5116474;28;20584;-78
2023/09/07 07:10:28;;;;;;;10.60;6.72;;;17.30;99.90;;;;;;5116447;28;20587;-79
2023/09/07 07:12:54;;;;;;;9.05;6.60;;;17.50;99.90;;;;;;5117620;28;20212;-79
2023/09/07 07:15:20;;;;;;;8.60;6.18;;;17.60;99.90;;;;;;5117901;28;20175;-78
2023/09/07 07:17:46;;;;;;;11.73;6.40;;;17.70;99.90;;;;;;5116272;28;20592;-79
2023/09/07 07:20:12;;;;;;;12.18;6.57;;;17.90;99.90;;;;;;5116407;28;20565;-78
2023/09/07 07:22:38;;;;;;;8.52;6.47;;;18.00;99.90;;;;;;5118957;28;20279;-79
2023/09/07 07:25:05;;;;;;;9.38;6.85;;;18.10;99.90;;;;;;5126633;28;20165;-79
2023/09/07 07:27:32;;;;;;;8.32;6.25;;;18.20;99.90;;;;;;5122165;28;20172;-79
2023/09/07 07:29:58;;;;;;;14.13;6.57;;;18.40;99.90;;;;;;5119410;28;20200;-80
2023/09/07 07:32:23;;;;;;;9.63;5.72;;;18.50;99.90;;;;;;5118858;28;20211;-79
2023/09/07 07:34:52;;;;;;;8.15;6.30;;;18.60;99.90;;;;;;5120946;28;20631;-79
2023/09/07 07:37:19;;;;;;;10.27;6.30;;;18.80;99.90;;;;;;5119691;28;20587;-79
2023/09/07 07:39:45;;;;;;;9.57;5.65;;;18.90;99.90;;;;;;5118096;28;20241;-79
2023/09/07 07:42:12;;;;;;;14.55;6.38;;;19.00;99.90;;;;;;5119064;28;20599;-78
2023/09/07 07:44:38;;;;;;;8.77;6.20;;;19.10;99.90;;;;;;5118424;28;20253;-79
2023/09/07 07:47:03;;;;;;;8.98;6.65;;;19.30;99.90;;;;;;5118587;28;20165;-79
2023/09/07 07:49:31;;;;;;;10.30;6.30;;;19.30;99.90;;;;;;5110870;28;20739;-78
2023/09/07 07:52:00;;;;;;;10.65;6.18;;;19.40;99.90;;;;;;5099162;28;20283;-78
2023/09/07 07:54:28;;;;;;;10.07;6.35;;;19.50;99.90;;;;;;5097068;28;20188;-78
2023/09/07 07:56:54;;;;;;;9.73;6.18;;;19.60;99.90;;;;;;5095648;28;20637;-78
2023/09/07 07:59:20;;;;;;;9.52;5.78;;;19.70;99.90;;;;;;5096704;28;20209;-78
2023/09/07 08:01:45;;;;;;;9.18;6.45;;;19.80;99.90;;;;;;5095769;28;20177;-78
2023/09/07 08:04:12;;;;;;;10.32;6.13;;;19.90;99.90;;;;;;5097682;28;20629;-77
2023/09/07 08:06:38;;;;;;;8.77;5.90;;;19.90;99.90;;;;;;5097188;28;20528;-77
2023/09/07 08:09:05;;;;;;;8.88;6.10;;;20.00;99.90;;;;;;5095982;28;20201;-78
2023/09/07 08:11:31;;;;;;;13.10;6.53;;;20.10;99.90;;;;;;5096834;28;20192;-77
2023/09/07 08:13:57;;;;;;;13.73;6.35;;;20.20;99.90;;;;;;5097535;28;20158;-77
2023/09/07 08:16:23;;;;;;;12.65;6.55;;;20.40;99.90;;;;;;5096265;28;20192;-78
2023/09/07 08:18:49;;;;;;;8.82;6.28;;;20.70;99.90;;;;;;5095857;28;20192;-78
2023/09/07 08:21:18;;;;;;;12.50;6.05;;;20.80;99.90;;;;;;5115842;28;20675;-79
2023/09/07 08:23:44;;;;;;;11.18;6.85;;;21.00;99.90;;;;;;5116741;28;20643;-80
2023/09/07 08:26:10;;;;;;;8.30;5.95;;;21.20;99.90;;;;;;5118248;28;20688;-79
2023/09/07 08:28:36;;;;;;;11.80;6.38;;;21.40;99.90;;;;;;5115639;28;20196;-78
2023/09/07 08:31:04;;;;;;;11.10;6.07;;;21.60;99.90;;;;;;5115935;28;20276;-79
2023/09/07 08:33:32;;;;;;;10.77;6.03;;;21.80;99.90;;;;;;5115575;28;20178;-79
2023/09/07 08:38:34;;;;;;;17.02;6.55;;;22.20;99.90;;;;;;5450045;22;20320;-78
2023/09/07 08:41:05;;;;;;;10.63;6.35;;;22.40;99.90;;;;;;5096060;28;20176;-78
2023/09/07 08:43:35;;;;;;;7.20;5.32;;;22.80;99.90;;;;;;5097329;28;20204;-78
2023/09/07 08:46:14;;;;;;;10.45;6.15;;;23.00;99.90;;;;;;5098348;28;20184;-79
2023/09/07 08:48:43;;;;;;;11.02;5.68;;;23.20;99.90;;;;;;5098242;28;20180;-79
2023/09/07 08:51:11;;;;;;;8.60;5.82;;;23.30;99.90;;;;;;5098880;28;20209;-79
2023/09/07 08:53:39;;;;;;;9.23;5.68;;;23.50;99.90;;;;;;5117080;28;20156;-79
2023/09/07 08:56:09;;;;;;;9.55;5.22;;;23.60;99.90;;;;;;5098374;28;20218;-79
2023/09/07 08:58:36;;;;;;;7.63;5.55;;;23.80;99.90;;;;;;5116794;28;20196;-80
2023/09/07 09:01:03;;;;;;;9.60;5.43;;;23.90;99.90;;;;;;5116938;28;20162;-80
2023/09/07 09:03:30;;;;;;;10.00;5.22;;;24.10;99.90;;;;;;5098930;28;20180;-79
2023/09/07 09:05:57;;;;;;;8.55;4.90;;;24.40;99.90;;;;;;5117584;28;20500;-79
2023/09/07 09:08:24;;;;;;;9.07;5.47;;;24.60;99.90;;;;;;5100805;28;20176;-80
2023/09/07 09:11:02;;;;;;;8.05;4.82;;;24.70;53.70;;;;;;5100523;28;20164;-80
2023/09/07 09:13:32;;;;;;;5.85;4.75;;;24.90;1.00;;;;;;5102527;28;20165;-81
2023/09/07 09:16:02;;;;;;;6.78;4.60;;;25.00;1.00;;;;;;5104452;28;20636;-81
2023/09/07 09:18:30;;;;;;;7.40;4.80;;;25.10;1.00;;;;;;5120875;28;20237;-80
2023/09/07 09:20:58;;;;;;;7.72;4.65;;;25.20;1.00;;;;;;5119666;28;20270;-80
2023/09/07 09:23:37;;;;;;;8.95;4.65;;;25.30;1.00;;;;;;5115948;28;20199;-80
2023/09/07 09:26:05;;;;;;;5.85;4.50;;;25.30;99.90;;;;;;5115947;28;20156;-77
2023/09/07 09:28:32;;;;;;;6.88;4.57;;;25.50;1.00;;;;;;5097777;28;20179;-77
2023/09/07 09:31:00;;;;;;;6.97;4.65;;;25.60;1.00;;;;;;5119379;28;20555;-77
2023/09/07 09:33:27;;;;;;;5.65;4.38;;;25.70;1.00;;;;;;5116526;28;20163;-80
2023/09/07 09:35:54;;;;;;;6.13;4.30;;;25.70;1.00;;;;;;5115789;28;20198;-80
2023/09/07 09:38:20;;;;;;;5.80;4.38;;;25.80;99.90;;;;;;5097620;28;20655;-80
2023/09/07 09:40:46;;;;;;;6.25;4.50;;;25.90;99.90;;;;;;5098034;28;20213;-81
2023/09/07 09:43:13;;;;;;;7.32;4.68;;;26.00;99.90;;;;;;5115618;28;20164;-81
2023/09/07 09:45:45;;;;;;;6.15;3.95;;;26.10;99.90;;;;;;5116333;28;20161;-80
2023/09/07 09:48:13;;;;;;;8.18;4.95;;;26.10;1.00;;;;;;5097613;28;20192;-80
2023/09/07 09:50:40;;;;;;;8.27;4.63;;;26.10;99.90;;;;;;5096906;28;20177;-80
2023/09/07 09:53:07;;;;;;;9.05;4.80;;;26.10;1.00;;;;;;5115132;28;20251;-80
2023/09/07 09:55:33;;;;;;;8.70;4.70;;;26.10;99.90;;;;;;5097286;28;20662;-80
2023/09/07 09:57:59;;;;;;;9.55;4.45;;;26.20;1.00;;;;;;5097281;28;20200;-80
2023/09/07 10:00:27;;;;;;;6.35;4.13;;;26.30;99.90;;;;;;5119047;28;20168;-81
2023/09/07 10:03:00;;;;;;;5.78;4.38;;;26.30;99.90;;;;;;5117392;28;20213;-81
2023/09/07 10:05:26;;;;;;;6.28;4.40;;;26.40;1.00;;;;;;5098361;28;20183;-78
2023/09/07 10:07:52;;;;;;;5.07;4.50;;;26.30;99.90;;;;;;5095926;28;20203;-79
2023/09/07 10:10:19;;;;;;;8.70;4.90;;;26.30;1.00;;;;;;5099404;28;20197;-80
2023/09/07 10:12:55;;;;;;;11.45;5.28;;;26.30;99.90;;;;;;5097865;28;20235;-80
2023/09/07 10:15:25;;;;;;;7.95;4.65;;;26.30;99.90;;;;;;5116076;28;20149;-80
2023/09/07 10:18:07;;;;;;;6.70;4.78;;;26.30;1.00;;;;;;5115204;28;20192;-79
2023/09/07 10:20:57;;;;;;;6.70;4.93;;;26.40;1.00;;;;;;5096636;28;20561;-78
2023/09/07 10:23:34;;;;;;;9.85;5.18;;;26.50;1.00;;;;;;5096417;28;20179;-78
2023/09/07 10:26:04;;;;;;;7.13;4.82;;;26.50;1.00;;;;;;5095987;28;20537;-78
2023/09/07 10:28:30;;;;;;;6.85;4.72;;;26.50;57.60;;;;;;5096198;28;20184;-78
2023/09/07 10:31:26;;;;;;;8.23;5.20;;;26.50;99.90;;;;;;5114506;28;20247;-78
2023/09/07 10:33:52;;;;;;;7.22;4.55;;;26.50;99.90;;;;;;5114801;28;20557;-78
2023/09/07 10:36:27;;;;;;;7.13;4.38;;;26.60;99.90;;;;;;5115043;28;20197;-79
2023/09/07 10:38:55;;;;;;;7.47;5.07;;;26.60;1.00;;;;;;5101453;28;20270;-80
2023/09/07 10:41:24;;;;;;;6.60;4.75;;;26.60;1.00;;;;;;5101292;28;20180;-79
2023/09/07 10:43:54;;;;;;;7.10;5.07;;;26.70;99.90;;;;;;5101619;28;20180;-79
2023/09/07 10:46:24;;;;;;;8.65;4.47;;;26.70;1.00;;;;;;5119521;28;20196;-79
2023/09/07 10:48:53;;;;;;;7.80;4.75;;;26.90;1.00;;;;;;5100995;28;20176;-80
2023/09/07 10:51:22;;;;;;;7.68;4.93;;;27.00;99.90;;;;;;5081134;28;20193;-78
2023/09/07 10:53:48;;;;;;;9.07;5.32;;;27.10;99.90;;;;;;5099811;28;20207;-80
2023/09/07 10:56:14;;;;;;;7.85;5.03;;;27.30;1.00;;;;;;5080686;28;20257;-80
2023/09/07 10:58:43;;;;;;;8.13;4.80;;;27.30;1.00;;;;;;5080616;28;20185;-80
2023/09/07 11:01:10;;;;;;;5.72;4.45;;;27.50;1.00;;;;;;5080342;28;20646;-80
2023/09/07 11:03:37;;;;;;;6.43;4.40;;;27.60;99.90;;;;;;5098683;28;20208;-80
2023/09/07 11:06:08;;;;;;;7.60;4.93;;;27.70;99.90;;;;;;5097837;28;20204;-81
2023/09/07 11:08:36;;;;;;;5.80;4.50;;;27.90;99.90;;;;;;5079532;28;20180;-80
2023/09/07 11:11:03;;;;;;;10.02;4.82;;;28.00;99.90;;;;;;5097719;28;20193;-81
2023/09/07 11:13:31;;;;;;;6.25;4.32;;;28.20;1.00;;;;;;5079784;28;20565;-81
2023/09/07 11:15:58;;;;;;;5.82;4.97;;;28.30;63.00;;;;;;5097971;28;20157;-78
2023/09/07 11:18:25;;;;;;;5.13;4.50;;;28.40;1.00;;;;;;5080191;28;20165;-81
2023/09/07 11:20:52;;;;;;;6.50;4.95;;;28.50;1.00;;;;;;5096696;28;20223;-81
2023/09/07 11:23:19;;;;;;;6.60;5.00;;;28.50;1.00;;;;;;5117911;28;20161;-81
2023/09/07 11:25:48;;;;;;;5.28;4.43;;;28.60;99.90;;;;;;5101420;28;20247;-81
2023/09/07 11:28:18;;;;;;;7.30;5.03;;;28.80;99.90;;;;;;5121030;28;20282;-82
2023/09/07 11:30:51;;;;;;;10.60;4.63;;;28.90;1.00;;;;;;5101246;28;20161;-81
2023/09/07 11:33:17;;;;;;;6.45;4.63;;;28.90;99.90;;;;;;5117553;28;20164;-78
2023/09/07 11:35:43;;;;;;;5.30;4.28;;;29.10;1.00;;;;;;5117229;28;20160;-78
2023/09/07 11:38:14;;;;;;;10.40;4.95;;;29.20;99.90;;;;;;5098976;28;20770;-78
2023/09/07 11:40:44;;;;;;;6.00;4.65;;;29.30;1.00;;;;;;5096825;28;20168;-78
2023/09/07 11:43:20;;;;;;;5.93;4.43;;;29.50;1.00;;;;;;5098950;28;20169;-79
2023/09/07 11:45:46;;;;;;;6.07;4.60;;;29.60;1.00;;;;;;5117868;28;20176;-79
2023/09/07 11:48:12;;;;;;;6.72;4.97;;;29.70;99.90;;;;;;5099306;28;20690;-79
2023/09/07 11:50:40;;;;;;;6.57;4.57;;;29.80;1.00;;;;;;5102527;28;20185;-79
2023/09/07 11:53:06;;;;;;;7.03;4.78;;;29.90;92.50;;;;;;5077996;28;20248;-77
2023/09/07 11:55:33;;;;;;;5.88;4.20;;;30.10;99.90;;;;;;5079843;28;20173;-81
2023/09/07 11:58:02;;;;;;;9.38;4.60;;;30.30;99.90;;;;;;5079082;28;20233;-81
2023/09/07 12:00:29;;;;;;;7.85;4.65;;;30.50;99.90;;;;;;5079546;28;20192;-78
2023/09/07 12:02:58;;;;;;;6.22;4.13;;;30.60;1.00;;;;;;5078092;28;20252;-78
2023/09/07 12:05:24;;;;;;;5.97;4.80;;;30.90;1.00;;;;;;5079326;28;20318;-79
2023/09/07 12:07:50;;;;;;;4.55;4.00;;;31.00;99.90;;;;;;5077533;28;20256;-78
2023/09/07 12:10:17;;;;;;;7.63;4.35;;;31.10;99.90;;;;;;5096352;28;20165;-78
2023/09/07 12:12:44;;;;;;;4.35;3.90;;;31.40;99.90;;;;;;5078683;28;20289;-79
2023/09/07 12:15:13;;;;;;;8.30;4.45;;;31.50;99.90;;;;;;5078461;28;20238;-78
2023/09/07 12:17:39;;;;;;;6.13;4.70;;;31.60;92.20;;;;;;5078216;28;20189;-79
2023/09/07 12:20:09;;;;;;;7.45;4.35;;;31.60;99.90;;;;;;5078330;28;20196;-79
2023/09/07 12:22:37;;;;;;;5.45;4.10;;;31.60;99.90;;;;;;5078100;28;20651;-79
2023/09/07 12:25:08;;;;;;;5.03;4.00;;;31.70;1.00;;;;;;5078240;28;20593;-79
2023/09/07 12:27:34;;;;;;;7.72;4.65;;;31.70;99.90;;;;;;5077922;28;20207;-79
2023/09/07 12:30:01;;;;;;;9.18;4.63;;;31.90;99.90;;;;;;5097068;28;20166;-79
2023/09/07 12:32:27;;;;;;;5.47;4.25;;;31.90;99.90;;;;;;5096202;28;20220;-78
2023/09/07 12:34:53;;;;;;;10.18;4.90;;;32.00;99.90;;;;;;5077655;28;20539;-81
2023/09/07 12:37:24;;;;;;;5.88;4.13;;;32.20;99.90;;;;;;5077247;28;20189;-81
2023/09/07 12:39:53;;;;;;;6.53;4.70;;;32.40;99.90;;;;;;5078717;28;20173;-81
2023/09/07 12:42:19;;;;;;;6.38;4.32;;;32.60;99.90;;;;;;5097669;28;20161;-81
2023/09/07 12:44:45;;;;;;;7.32;4.43;;;32.70;2.40;;;;;;5079772;28;20188;-80
2023/09/07 12:47:11;;;;;;;9.63;4.68;;;32.50;1.00;;;;;;5079960;28;20207;-79
2023/09/07 12:49:36;;;;;;;7.30;4.40;;;32.70;1.00;;;;;;5084911;28;20652;-79
2023/09/07 12:52:08;;;;;;;10.68;4.63;;;32.70;99.90;;;;;;5098522;28;20254;-79
2023/09/07 12:54:35;;;;;;;5.80;4.38;;;32.60;1.00;;;;;;5122970;28;20645;-81
2023/09/07 12:57:01;;;;;;;5.68;4.40;;;32.60;1.00;;;;;;5116637;28;20193;-78
2023/09/07 12:59:28;;;;;;;6.25;4.68;;;32.70;1.00;;;;;;5096744;28;20172;-78
2023/09/07 13:01:55;;;;;;;5.70;3.83;;;32.80;1.00;;;;;;5115786;28;20176;-79
2023/09/07 13:04:24;;;;;;;5.10;4.60;;;32.80;1.00;;;;;;5098270;28;20165;-78
2023/09/07 13:06:50;;;;;;;6.55;3.90;;;32.70;1.00;;;;;;5098353;28;20257;-80
2023/09/07 13:09:16;;;;;;;6.38;4.63;;;32.80;1.00;;;;;;5101798;28;20176;-80